sensor_id;sensor_type;location;lat;lon;timestamp;P1;durP1;ratioP1;P2;durP2;ratioP2
65033;SDS011;51601;51.356;12.458;2022-11-10T00:00:04;8.60;;;2.00;;
65033;SDS011;51601;51.356;12.458;2022-11-10T00:04:39;6.53;;;2.08;;
65033;SDS011;51601;51.356;12.458;2022-11-10T00:09:13;6.90;;;2.17;;
65033;SDS011;51601;51.356;12.458;2022-11-10T00:13:46;6.55;;;2.00;;
65033;SDS011;51601;51.356;12.458;2022-11-10T00:18:37;5.05;;;1.80;;
65033;SDS011;51601;51.356;12.458;2022-11-10T00:23:09;6.18;;;2.17;;
65033;SDS011;51601;51.356;12.458;2022-11-10T00:27:43;6.67;;;2.00;;
65033;SDS011;51601;51.356;12.458;2022-11-10T00:32:15;4.25;;;1.70;;
65033;SDS011;51601;51.356;12.458;2022-11-10T00:36:47;7.65;;;1.95;;
65033;SDS011;51601;51.356;12.458;2022-11-10T00:41:20;6.47;;;2.13;;
65033;SDS011;51601;51.356;12.458;2022-11-10T00:45:54;9.30;;;2.10;;
65033;SDS011;51601;51.356;12.458;2022-11-10T00:50:26;7.60;;;2.10;;
65033;SDS011;51601;51.356;12.458;2022-11-10T00:54:59;8.67;;;2.23;;
65033;SDS011;51601;51.356;12.458;2022-11-10T00:59:31;6.15;;;2.00;;
65033;SDS011;51601;51.356;12.458;2022-11-10T01:04:04;8.15;;;2.28;;
65033;SDS011;51601;51.356;12.458;2022-11-10T01:08:37;6.05;;;2.22;;
65033;SDS011;51601;51.356;12.458;2022-11-10T01:13:10;7.23;;;2.40;;
65033;SDS011;51601;51.356;12.458;2022-11-10T01:17:42;10.00;;;2.38;;
65033;SDS011;51601;51.356;12.458;2022-11-10T01:22:16;9.27;;;2.08;;
65033;SDS011;51601;51.356;12.458;2022-11-10T01:26:48;7.33;;;2.57;;
65033;SDS011;51601;51.356;12.458;2022-11-10T01:31:21;7.68;;;2.00;;
65033;SDS011;51601;51.356;12.458;2022-11-10T01:35:53;8.13;;;2.00;;
65033;SDS011;51601;51.356;12.458;2022-11-10T01:40:27;6.70;;;2.00;;
65033;SDS011;51601;51.356;12.458;2022-11-10T01:50:05;6.25;;;2.00;;
65033;SDS011;51601;51.356;12.458;2022-11-10T01:54:58;5.03;;;1.90;;
65033;SDS011;51601;51.356;12.458;2022-11-10T01:59:34;7.63;;;2.00;;
65033;SDS011;51601;51.356;12.458;2022-11-10T02:04:12;7.47;;;2.10;;
65033;SDS011;51601;51.356;12.458;2022-11-10T02:08:46;8.52;;;1.90;;
65033;SDS011;51601;51.356;12.458;2022-11-10T02:13:20;6.93;;;2.17;;
65033;SDS011;51601;51.356;12.458;2022-11-10T02:17:55;6.85;;;1.88;;
65033;SDS011;51601;51.356;12.458;2022-11-10T02:22:28;6.97;;;2.05;;
65033;SDS011;51601;51.356;12.458;2022-11-10T02:27:01;6.57;;;2.17;;
65033;SDS011;51601;51.356;12.458;2022-11-10T02:31:34;8.95;;;1.70;;
65033;SDS011;51601;51.356;12.458;2022-11-10T02:36:06;7.78;;;1.90;;
65033;SDS011;51601;51.356;12.458;2022-11-10T02:40:40;7.28;;;2.25;;
65033;SDS011;51601;51.356;12.458;2022-11-10T02:50:11;7.13;;;2.10;;
65033;SDS011;51601;51.356;12.458;2022-11-10T02:54:44;9.43;;;2.20;;
65033;SDS011;51601;51.356;12.458;2022-11-10T02:59:17;9.37;;;2.10;;
65033;SDS011;51601;51.356;12.458;2022-11-10T03:03:49;5.28;;;2.05;;
65033;SDS011;51601;51.356;12.458;2022-11-10T03:08:21;6.93;;;2.40;;
65033;SDS011;51601;51.356;12.458;2022-11-10T03:12:54;7.50;;;2.13;;
65033;SDS011;51601;51.356;12.458;2022-11-10T03:17:29;7.60;;;2.13;;
65033;SDS011;51601;51.356;12.458;2022-11-10T03:22:01;9.68;;;2.33;;
65033;SDS011;51601;51.356;12.458;2022-11-10T03:26:33;6.88;;;2.25;;
65033;SDS011;51601;51.356;12.458;2022-11-10T03:31:06;6.07;;;2.10;;
65033;SDS011;51601;51.356;12.458;2022-11-10T03:35:39;9.73;;;2.15;;
65033;SDS011;51601;51.356;12.458;2022-11-10T03:40:11;9.63;;;2.08;;
65033;SDS011;51601;51.356;12.458;2022-11-10T03:44:43;9.20;;;2.33;;
65033;SDS011;51601;51.356;12.458;2022-11-10T03:49:16;7.18;;;2.20;;
65033;SDS011;51601;51.356;12.458;2022-11-10T03:53:50;6.50;;;2.30;;
65033;SDS011;51601;51.356;12.458;2022-11-10T03:58:22;9.03;;;2.37;;
65033;SDS011;51601;51.356;12.458;2022-11-10T04:02:54;7.75;;;2.70;;
65033;SDS011;51601;51.356;12.458;2022-11-10T04:07:27;7.10;;;2.40;;
65033;SDS011;51601;51.356;12.458;2022-11-10T04:12:17;10.00;;;2.50;;
65033;SDS011;51601;51.356;12.458;2022-11-10T04:17:07;10.17;;;2.50;;
65033;SDS011;51601;51.356;12.458;2022-11-10T04:21:40;8.65;;;2.30;;
65033;SDS011;51601;51.356;12.458;2022-11-10T04:26:13;9.75;;;2.50;;
65033;SDS011;51601;51.356;12.458;2022-11-10T04:31:04;8.63;;;2.40;;
65033;SDS011;51601;51.356;12.458;2022-11-10T04:35:36;8.77;;;2.28;;
65033;SDS011;51601;51.356;12.458;2022-11-10T04:40:09;5.95;;;2.38;;
65033;SDS011;51601;51.356;12.458;2022-11-10T04:44:41;7.93;;;2.50;;
65033;SDS011;51601;51.356;12.458;2022-11-10T04:49:15;7.22;;;2.63;;
65033;SDS011;51601;51.356;12.458;2022-11-10T04:53:48;9.57;;;2.60;;
65033;SDS011;51601;51.356;12.458;2022-11-10T04:58:20;9.80;;;2.50;;
65033;SDS011;51601;51.356;12.458;2022-11-10T05:02:53;12.33;;;2.50;;
65033;SDS011;51601;51.356;12.458;2022-11-10T05:07:26;8.40;;;2.50;;
65033;SDS011;51601;51.356;12.458;2022-11-10T05:11:59;7.28;;;2.35;;
65033;SDS011;51601;51.356;12.458;2022-11-10T05:16:31;10.87;;;2.87;;
65033;SDS011;51601;51.356;12.458;2022-11-10T05:21:03;9.07;;;2.60;;
65033;SDS011;51601;51.356;12.458;2022-11-10T05:25:37;6.47;;;2.55;;
65033;SDS011;51601;51.356;12.458;2022-11-10T05:30:11;10.10;;;2.60;;
65033;SDS011;51601;51.356;12.458;2022-11-10T05:34:43;7.63;;;2.58;;
65033;SDS011;51601;51.356;12.458;2022-11-10T05:39:16;7.78;;;2.70;;
65033;SDS011;51601;51.356;12.458;2022-11-10T05:43:49;8.68;;;2.40;;
65033;SDS011;51601;51.356;12.458;2022-11-10T05:48:21;10.97;;;2.40;;
65033;SDS011;51601;51.356;12.458;2022-11-10T05:52:54;11.05;;;2.70;;
65033;SDS011;51601;51.356;12.458;2022-11-10T05:57:26;8.10;;;2.78;;
65033;SDS011;51601;51.356;12.458;2022-11-10T06:02:00;6.90;;;3.33;;
65033;SDS011;51601;51.356;12.458;2022-11-10T06:06:33;9.55;;;2.63;;
65033;SDS011;51601;51.356;12.458;2022-11-10T06:11:07;11.25;;;2.63;;
65033;SDS011;51601;51.356;12.458;2022-11-10T06:15:40;9.13;;;2.70;;
65033;SDS011;51601;51.356;12.458;2022-11-10T06:20:21;7.30;;;2.47;;
65033;SDS011;51601;51.356;12.458;2022-11-10T06:24:54;6.28;;;2.20;;
65033;SDS011;51601;51.356;12.458;2022-11-10T06:29:26;7.65;;;2.38;;
65033;SDS011;51601;51.356;12.458;2022-11-10T06:33:58;10.00;;;2.67;;
65033;SDS011;51601;51.356;12.458;2022-11-10T06:38:32;7.45;;;2.20;;
65033;SDS011;51601;51.356;12.458;2022-11-10T06:43:04;8.65;;;2.50;;
65033;SDS011;51601;51.356;12.458;2022-11-10T06:47:36;10.10;;;2.70;;
65033;SDS011;51601;51.356;12.458;2022-11-10T06:52:09;10.27;;;2.50;;
65033;SDS011;51601;51.356;12.458;2022-11-10T06:56:43;11.43;;;3.00;;
65033;SDS011;51601;51.356;12.458;2022-11-10T07:01:15;9.77;;;2.40;;
65033;SDS011;51601;51.356;12.458;2022-11-10T07:05:52;8.13;;;2.88;;
65033;SDS011;51601;51.356;12.458;2022-11-10T07:10:24;9.38;;;2.45;;
65033;SDS011;51601;51.356;12.458;2022-11-10T07:14:58;10.35;;;2.95;;
65033;SDS011;51601;51.356;12.458;2022-11-10T07:19:30;8.20;;;2.63;;
65033;SDS011;51601;51.356;12.458;2022-11-10T07:24:03;8.93;;;2.60;;
65033;SDS011;51601;51.356;12.458;2022-11-10T07:28:36;9.15;;;2.70;;
65033;SDS011;51601;51.356;12.458;2022-11-10T07:33:10;8.03;;;2.60;;
65033;SDS011;51601;51.356;12.458;2022-11-10T07:37:43;15.93;;;2.80;;
65033;SDS011;51601;51.356;12.458;2022-11-10T07:42:15;5.93;;;2.60;;
65033;SDS011;51601;51.356;12.458;2022-11-10T07:46:48;8.10;;;2.33;;
65033;SDS011;51601;51.356;12.458;2022-11-10T07:51:21;8.65;;;2.10;;
65033;SDS011;51601;51.356;12.458;2022-11-10T07:55:56;7.53;;;2.15;;
65033;SDS011;51601;51.356;12.458;2022-11-10T08:00:29;10.65;;;2.20;;
65033;SDS011;51601;51.356;12.458;2022-11-10T08:05:06;10.43;;;2.30;;
65033;SDS011;51601;51.356;12.458;2022-11-10T08:09:46;9.27;;;2.25;;
65033;SDS011;51601;51.356;12.458;2022-11-10T08:14:18;13.38;;;2.25;;
65033;SDS011;51601;51.356;12.458;2022-11-10T08:18:51;7.40;;;2.20;;
65033;SDS011;51601;51.356;12.458;2022-11-10T08:23:23;8.82;;;2.20;;
65033;SDS011;51601;51.356;12.458;2022-11-10T08:28:00;7.93;;;2.13;;
65033;SDS011;51601;51.356;12.458;2022-11-10T08:32:37;8.47;;;2.20;;
65033;SDS011;51601;51.356;12.458;2022-11-10T08:37:13;7.57;;;2.10;;
65033;SDS011;51601;51.356;12.458;2022-11-10T08:41:45;5.97;;;2.08;;
65033;SDS011;51601;51.356;12.458;2022-11-10T08:46:19;8.00;;;2.58;;
65033;SDS011;51601;51.356;12.458;2022-11-10T08:50:51;7.90;;;2.40;;
65033;SDS011;51601;51.356;12.458;2022-11-10T08:55:23;7.95;;;2.20;;
65033;SDS011;51601;51.356;12.458;2022-11-10T08:59:56;10.02;;;2.40;;
65033;SDS011;51601;51.356;12.458;2022-11-10T09:04:30;10.57;;;2.73;;
65033;SDS011;51601;51.356;12.458;2022-11-10T09:09:02;9.55;;;2.40;;
65033;SDS011;51601;51.356;12.458;2022-11-10T09:13:35;9.23;;;2.00;;
65033;SDS011;51601;51.356;12.458;2022-11-10T09:18:08;7.00;;;2.20;;
65033;SDS011;51601;51.356;12.458;2022-11-10T09:22:43;9.82;;;2.30;;
65033;SDS011;51601;51.356;12.458;2022-11-10T09:27:16;7.63;;;2.10;;
65033;SDS011;51601;51.356;12.458;2022-11-10T09:31:49;7.28;;;2.22;;
65033;SDS011;51601;51.356;12.458;2022-11-10T09:36:21;6.70;;;2.03;;
65033;SDS011;51601;51.356;12.458;2022-11-10T09:40:58;10.40;;;2.40;;
65033;SDS011;51601;51.356;12.458;2022-11-10T09:45:34;8.15;;;2.35;;
65033;SDS011;51601;51.356;12.458;2022-11-10T09:50:13;10.37;;;2.50;;
65033;SDS011;51601;51.356;12.458;2022-11-10T09:54:50;7.82;;;2.60;;
65033;SDS011;51601;51.356;12.458;2022-11-10T09:59:29;11.05;;;2.50;;
65033;SDS011;51601;51.356;12.458;2022-11-10T10:04:06;7.50;;;2.20;;
65033;SDS011;51601;51.356;12.458;2022-11-10T10:13:47;10.77;;;2.67;;
65033;SDS011;51601;51.356;12.458;2022-11-10T10:18:32;11.30;;;2.55;;
65033;SDS011;51601;51.356;12.458;2022-11-10T10:23:13;9.60;;;2.53;;
65033;SDS011;51601;51.356;12.458;2022-11-10T10:28:13;10.40;;;2.42;;
65033;SDS011;51601;51.356;12.458;2022-11-10T10:32:54;8.60;;;2.67;;
65033;SDS011;51601;51.356;12.458;2022-11-10T10:37:34;8.40;;;2.37;;
65033;SDS011;51601;51.356;12.458;2022-11-10T10:42:14;9.88;;;2.28;;
65033;SDS011;51601;51.356;12.458;2022-11-10T10:46:54;9.27;;;2.47;;
65033;SDS011;51601;51.356;12.458;2022-11-10T10:51:28;12.43;;;2.43;;
65033;SDS011;51601;51.356;12.458;2022-11-10T10:56:05;10.57;;;2.65;;
65033;SDS011;51601;51.356;12.458;2022-11-10T11:00:46;7.97;;;1.88;;
65033;SDS011;51601;51.356;12.458;2022-11-10T11:05:19;9.95;;;2.30;;
65033;SDS011;51601;51.356;12.458;2022-11-10T11:09:52;10.77;;;2.93;;
65033;SDS011;51601;51.356;12.458;2022-11-10T11:14:26;7.00;;;1.98;;
65033;SDS011;51601;51.356;12.458;2022-11-10T11:18:59;9.82;;;2.38;;
65033;SDS011;51601;51.356;12.458;2022-11-10T11:23:35;7.57;;;2.83;;
65033;SDS011;51601;51.356;12.458;2022-11-10T11:28:25;8.68;;;2.45;;
65033;SDS011;51601;51.356;12.458;2022-11-10T11:33:13;8.52;;;2.72;;
65033;SDS011;51601;51.356;12.458;2022-11-10T11:37:54;7.43;;;1.87;;
65033;SDS011;51601;51.356;12.458;2022-11-10T11:42:40;9.60;;;2.00;;
65033;SDS011;51601;51.356;12.458;2022-11-10T11:47:25;8.38;;;2.47;;
65033;SDS011;51601;51.356;12.458;2022-11-10T11:52:12;8.70;;;2.90;;
65033;SDS011;51601;51.356;12.458;2022-11-10T11:56:49;7.40;;;2.60;;
65033;SDS011;51601;51.356;12.458;2022-11-10T12:01:27;10.55;;;2.30;;
65033;SDS011;51601;51.356;12.458;2022-11-10T12:06:14;10.40;;;2.40;;
65033;SDS011;51601;51.356;12.458;2022-11-10T12:11:00;7.43;;;2.60;;
65033;SDS011;51601;51.356;12.458;2022-11-10T12:15:46;10.95;;;2.15;;
65033;SDS011;51601;51.356;12.458;2022-11-10T12:20:26;10.00;;;2.42;;
65033;SDS011;51601;51.356;12.458;2022-11-10T12:25:09;7.10;;;2.03;;
65033;SDS011;51601;51.356;12.458;2022-11-10T12:29:51;8.63;;;2.45;;
65033;SDS011;51601;51.356;12.458;2022-11-10T12:34:28;7.65;;;2.30;;
65033;SDS011;51601;51.356;12.458;2022-11-10T12:39:10;7.18;;;2.05;;
65033;SDS011;51601;51.356;12.458;2022-11-10T12:43:55;6.93;;;1.77;;
65033;SDS011;51601;51.356;12.458;2022-11-10T12:48:35;10.82;;;2.20;;
65033;SDS011;51601;51.356;12.458;2022-11-10T12:53:17;7.45;;;1.90;;
65033;SDS011;51601;51.356;12.458;2022-11-10T12:57:52;9.33;;;2.33;;
65033;SDS011;51601;51.356;12.458;2022-11-10T13:02:26;9.40;;;1.80;;
65033;SDS011;51601;51.356;12.458;2022-11-10T13:07:02;9.73;;;2.05;;
65033;SDS011;51601;51.356;12.458;2022-11-10T13:11:42;7.60;;;2.20;;
65033;SDS011;51601;51.356;12.458;2022-11-10T13:16:45;8.20;;;2.15;;
65033;SDS011;51601;51.356;12.458;2022-11-10T13:26:50;10.30;;;2.20;;
65033;SDS011;51601;51.356;12.458;2022-11-10T13:31:39;6.13;;;2.20;;
65033;SDS011;51601;51.356;12.458;2022-11-10T13:36:34;10.60;;;2.20;;
65033;SDS011;51601;51.356;12.458;2022-11-10T13:41:22;8.23;;;2.17;;
65033;SDS011;51601;51.356;12.458;2022-11-10T13:46:02;8.60;;;2.30;;
65033;SDS011;51601;51.356;12.458;2022-11-10T13:50:39;11.82;;;2.10;;
65033;SDS011;51601;51.356;12.458;2022-11-10T13:55:25;8.88;;;2.10;;
65033;SDS011;51601;51.356;12.458;2022-11-10T14:00:23;7.80;;;1.87;;
65033;SDS011;51601;51.356;12.458;2022-11-10T14:04:58;11.13;;;2.17;;
65033;SDS011;51601;51.356;12.458;2022-11-10T14:09:31;9.27;;;2.08;;
65033;SDS011;51601;51.356;12.458;2022-11-10T14:14:12;8.15;;;2.10;;
65033;SDS011;51601;51.356;12.458;2022-11-10T14:18:55;8.97;;;2.30;;
65033;SDS011;51601;51.356;12.458;2022-11-10T14:23:33;8.60;;;2.17;;
65033;SDS011;51601;51.356;12.458;2022-11-10T14:28:23;8.90;;;2.20;;
65033;SDS011;51601;51.356;12.458;2022-11-10T14:32:57;11.33;;;2.33;;
65033;SDS011;51601;51.356;12.458;2022-11-10T14:37:33;8.88;;;1.88;;
65033;SDS011;51601;51.356;12.458;2022-11-10T14:42:06;9.45;;;2.15;;
65033;SDS011;51601;51.356;12.458;2022-11-10T14:46:44;8.77;;;2.30;;
65033;SDS011;51601;51.356;12.458;2022-11-10T14:51:17;11.88;;;2.40;;
65033;SDS011;51601;51.356;12.458;2022-11-10T14:55:51;8.27;;;2.17;;
65033;SDS011;51601;51.356;12.458;2022-11-10T15:00:25;8.23;;;1.95;;
65033;SDS011;51601;51.356;12.458;2022-11-10T15:04:58;8.07;;;1.90;;
65033;SDS011;51601;51.356;12.458;2022-11-10T15:09:31;10.82;;;2.10;;
65033;SDS011;51601;51.356;12.458;2022-11-10T15:14:18;9.45;;;2.10;;
65033;SDS011;51601;51.356;12.458;2022-11-10T15:19:20;8.37;;;2.10;;
65033;SDS011;51601;51.356;12.458;2022-11-10T15:23:55;6.80;;;1.98;;
65033;SDS011;51601;51.356;12.458;2022-11-10T15:28:31;10.13;;;2.70;;
65033;SDS011;51601;51.356;12.458;2022-11-10T15:33:09;11.70;;;2.20;;
65033;SDS011;51601;51.356;12.458;2022-11-10T15:37:41;13.98;;;3.15;;
65033;SDS011;51601;51.356;12.458;2022-11-10T15:42:14;8.38;;;2.20;;
65033;SDS011;51601;51.356;12.458;2022-11-10T15:46:50;16.15;;;2.60;;
65033;SDS011;51601;51.356;12.458;2022-11-10T15:51:24;10.20;;;2.50;;
65033;SDS011;51601;51.356;12.458;2022-11-10T15:55:56;10.20;;;2.20;;
65033;SDS011;51601;51.356;12.458;2022-11-10T16:00:29;9.68;;;2.40;;
65033;SDS011;51601;51.356;12.458;2022-11-10T16:05:05;11.87;;;2.20;;
65033;SDS011;51601;51.356;12.458;2022-11-10T16:09:42;10.77;;;2.25;;
65033;SDS011;51601;51.356;12.458;2022-11-10T16:14:14;9.60;;;2.25;;
65033;SDS011;51601;51.356;12.458;2022-11-10T16:18:48;8.13;;;2.37;;
65033;SDS011;51601;51.356;12.458;2022-11-10T16:23:20;10.32;;;2.75;;
65033;SDS011;51601;51.356;12.458;2022-11-10T16:27:54;11.13;;;2.65;;
65033;SDS011;51601;51.356;12.458;2022-11-10T16:32:26;9.05;;;2.30;;
65033;SDS011;51601;51.356;12.458;2022-11-10T16:36:58;10.33;;;2.43;;
65033;SDS011;51601;51.356;12.458;2022-11-10T16:41:32;10.43;;;2.53;;
65033;SDS011;51601;51.356;12.458;2022-11-10T16:46:17;11.75;;;3.33;;
65033;SDS011;51601;51.356;12.458;2022-11-10T16:50:52;14.40;;;3.10;;
65033;SDS011;51601;51.356;12.458;2022-11-10T16:55:26;12.52;;;2.78;;
65033;SDS011;51601;51.356;12.458;2022-11-10T16:59:58;12.40;;;2.97;;
65033;SDS011;51601;51.356;12.458;2022-11-10T17:04:33;11.53;;;3.00;;
65033;SDS011;51601;51.356;12.458;2022-11-10T17:09:06;10.65;;;2.70;;
65033;SDS011;51601;51.356;12.458;2022-11-10T17:13:43;11.52;;;3.42;;
65033;SDS011;51601;51.356;12.458;2022-11-10T17:18:16;10.23;;;3.40;;
65033;SDS011;51601;51.356;12.458;2022-11-10T17:22:52;10.30;;;3.27;;
65033;SDS011;51601;51.356;12.458;2022-11-10T17:27:26;12.90;;;3.40;;
65033;SDS011;51601;51.356;12.458;2022-11-10T17:32:03;13.00;;;3.20;;
65033;SDS011;51601;51.356;12.458;2022-11-10T17:36:35;9.80;;;3.40;;
65033;SDS011;51601;51.356;12.458;2022-11-10T17:41:12;11.70;;;3.05;;
65033;SDS011;51601;51.356;12.458;2022-11-10T17:45:46;11.40;;;3.38;;
65033;SDS011;51601;51.356;12.458;2022-11-10T17:50:19;9.70;;;3.07;;
65033;SDS011;51601;51.356;12.458;2022-11-10T17:54:52;10.80;;;3.67;;
65033;SDS011;51601;51.356;12.458;2022-11-10T17:59:26;10.95;;;3.13;;
65033;SDS011;51601;51.356;12.458;2022-11-10T18:03:58;12.88;;;2.90;;
65033;SDS011;51601;51.356;12.458;2022-11-10T18:08:31;9.10;;;2.80;;
65033;SDS011;51601;51.356;12.458;2022-11-10T18:13:03;8.50;;;2.83;;
65033;SDS011;51601;51.356;12.458;2022-11-10T18:17:37;12.23;;;3.80;;
65033;SDS011;51601;51.356;12.458;2022-11-10T18:22:09;14.60;;;3.70;;
65033;SDS011;51601;51.356;12.458;2022-11-10T18:26:41;9.60;;;3.20;;
65033;SDS011;51601;51.356;12.458;2022-11-10T18:31:13;13.50;;;3.63;;
65033;SDS011;51601;51.356;12.458;2022-11-10T18:35:48;11.00;;;3.70;;
65033;SDS011;51601;51.356;12.458;2022-11-10T18:40:21;10.07;;;3.20;;
65033;SDS011;51601;51.356;12.458;2022-11-10T18:44:53;12.93;;;4.10;;
65033;SDS011;51601;51.356;12.458;2022-11-10T18:49:25;11.75;;;3.60;;
65033;SDS011;51601;51.356;12.458;2022-11-10T18:54:01;12.47;;;3.30;;
65033;SDS011;51601;51.356;12.458;2022-11-10T18:58:33;15.05;;;4.05;;
65033;SDS011;51601;51.356;12.458;2022-11-10T19:03:05;15.77;;;4.13;;
65033;SDS011;51601;51.356;12.458;2022-11-10T19:07:38;8.07;;;2.77;;
65033;SDS011;51601;51.356;12.458;2022-11-10T19:12:11;12.90;;;4.00;;
65033;SDS011;51601;51.356;12.458;2022-11-10T19:16:44;10.50;;;4.43;;
65033;SDS011;51601;51.356;12.458;2022-11-10T19:21:17;11.60;;;4.30;;
65033;SDS011;51601;51.356;12.458;2022-11-10T19:25:57;16.08;;;4.68;;
65033;SDS011;51601;51.356;12.458;2022-11-10T19:30:31;12.23;;;4.07;;
65033;SDS011;51601;51.356;12.458;2022-11-10T19:35:03;14.00;;;4.47;;
65033;SDS011;51601;51.356;12.458;2022-11-10T19:39:36;13.13;;;4.77;;
65033;SDS011;51601;51.356;12.458;2022-11-10T19:44:08;13.10;;;4.40;;
65033;SDS011;51601;51.356;12.458;2022-11-10T19:48:41;12.65;;;4.22;;
65033;SDS011;51601;51.356;12.458;2022-11-10T19:53:14;13.10;;;4.40;;
65033;SDS011;51601;51.356;12.458;2022-11-10T19:57:47;11.43;;;4.20;;
65033;SDS011;51601;51.356;12.458;2022-11-10T20:02:19;10.05;;;4.28;;
65033;SDS011;51601;51.356;12.458;2022-11-10T20:06:53;16.00;;;4.73;;
65033;SDS011;51601;51.356;12.458;2022-11-10T20:11:39;10.60;;;4.40;;
65033;SDS011;51601;51.356;12.458;2022-11-10T20:16:11;9.25;;;3.90;;
65033;SDS011;51601;51.356;12.458;2022-11-10T20:20:43;11.77;;;4.07;;
65033;SDS011;51601;51.356;12.458;2022-11-10T20:25:17;12.97;;;4.00;;
65033;SDS011;51601;51.356;12.458;2022-11-10T20:29:49;12.90;;;4.22;;
65033;SDS011;51601;51.356;12.458;2022-11-10T20:34:22;13.63;;;5.00;;
65033;SDS011;51601;51.356;12.458;2022-11-10T20:38:55;13.90;;;4.73;;
65033;SDS011;51601;51.356;12.458;2022-11-10T20:43:32;9.45;;;4.15;;
65033;SDS011;51601;51.356;12.458;2022-11-10T20:48:05;12.82;;;4.50;;
65033;SDS011;51601;51.356;12.458;2022-11-10T20:52:37;12.57;;;4.63;;
65033;SDS011;51601;51.356;12.458;2022-11-10T20:57:09;12.40;;;4.18;;
65033;SDS011;51601;51.356;12.458;2022-11-10T21:01:43;17.92;;;5.25;;
65033;SDS011;51601;51.356;12.458;2022-11-10T21:06:15;12.50;;;5.22;;
65033;SDS011;51601;51.356;12.458;2022-11-10T21:10:50;13.40;;;4.73;;
65033;SDS011;51601;51.356;12.458;2022-11-10T21:15:23;13.63;;;4.53;;
65033;SDS011;51601;51.356;12.458;2022-11-10T21:19:57;11.85;;;4.18;;
65033;SDS011;51601;51.356;12.458;2022-11-10T21:24:29;11.27;;;4.57;;
65033;SDS011;51601;51.356;12.458;2022-11-10T21:29:01;12.50;;;4.28;;
65033;SDS011;51601;51.356;12.458;2022-11-10T21:33:34;12.15;;;4.35;;
65033;SDS011;51601;51.356;12.458;2022-11-10T21:38:09;12.83;;;4.57;;
65033;SDS011;51601;51.356;12.458;2022-11-10T21:42:42;13.77;;;4.88;;
65033;SDS011;51601;51.356;12.458;2022-11-10T21:47:14;15.50;;;4.75;;
65033;SDS011;51601;51.356;12.458;2022-11-10T21:51:47;10.82;;;4.50;;
65033;SDS011;51601;51.356;12.458;2022-11-10T21:56:20;14.43;;;4.93;;
65033;SDS011;51601;51.356;12.458;2022-11-10T22:00:58;14.77;;;4.78;;
65033;SDS011;51601;51.356;12.458;2022-11-10T22:05:32;19.00;;;5.35;;
65033;SDS011;51601;51.356;12.458;2022-11-10T22:10:04;12.03;;;4.90;;
65033;SDS011;51601;51.356;12.458;2022-11-10T22:14:56;12.05;;;4.60;;
65033;SDS011;51601;51.356;12.458;2022-11-10T22:20:00;14.73;;;4.70;;
65033;SDS011;51601;51.356;12.458;2022-11-10T22:24:33;13.10;;;4.70;;
65033;SDS011;51601;51.356;12.458;2022-11-10T22:29:06;10.77;;;4.55;;
65033;SDS011;51601;51.356;12.458;2022-11-10T22:33:41;13.73;;;4.88;;
65033;SDS011;51601;51.356;12.458;2022-11-10T22:38:13;16.52;;;4.85;;
65033;SDS011;51601;51.356;12.458;2022-11-10T22:42:45;11.30;;;5.20;;
65033;SDS011;51601;51.356;12.458;2022-11-10T22:47:35;11.88;;;5.32;;
65033;SDS011;51601;51.356;12.458;2022-11-10T22:52:22;13.82;;;4.75;;
65033;SDS011;51601;51.356;12.458;2022-11-10T22:56:55;12.43;;;5.10;;
65033;SDS011;51601;51.356;12.458;2022-11-10T23:01:27;13.45;;;4.78;;
65033;SDS011;51601;51.356;12.458;2022-11-10T23:06:00;13.00;;;5.35;;
65033;SDS011;51601;51.356;12.458;2022-11-10T23:10:33;14.67;;;5.63;;
65033;SDS011;51601;51.356;12.458;2022-11-10T23:15:06;15.27;;;5.65;;
65033;SDS011;51601;51.356;12.458;2022-11-10T23:19:38;15.60;;;5.60;;
65033;SDS011;51601;51.356;12.458;2022-11-10T23:24:11;15.55;;;5.68;;
65033;SDS011;51601;51.356;12.458;2022-11-10T23:28:45;11.83;;;5.07;;
65033;SDS011;51601;51.356;12.458;2022-11-10T23:33:17;14.45;;;5.13;;
65033;SDS011;51601;51.356;12.458;2022-11-10T23:37:50;12.82;;;5.10;;
65033;SDS011;51601;51.356;12.458;2022-11-10T23:42:22;12.97;;;4.13;;
65033;SDS011;51601;51.356;12.458;2022-11-10T23:46:58;11.48;;;4.97;;
65033;SDS011;51601;51.356;12.458;2022-11-10T23:51:31;12.68;;;4.43;;
65033;SDS011;51601;51.356;12.458;2022-11-10T23:56:04;13.63;;;5.23;;
